Time;durP1;ratioP1;P1;durP2;ratioP2;P2;SDS_P1;SDS_P2;PMS_P1;PMS_P2;Temp;Humidity;BMP_temperature;BMP_pressure;BME280_temperature;BME280_humidity;BME280_pressure;Samples;Min_cycle;Max_cycle;Signal;HPM_P1;HPM_P2
2021/08/29 00:00:57;;;;;;;11.15;6.30;;;;;;;17.24;65.96;100549.44;1744591;82;21616;-58
2021/08/29 00:03:26;;;;;;;8.50;5.92;;;;;;;17.18;66.05;100553.59;1740677;80;21016;-58
2021/08/29 00:05:53;;;;;;;9.15;6.53;;;;;;;17.07;66.31;100558.69;1739239;82;21125;-58
2021/08/29 00:08:20;;;;;;;8.03;5.53;;;;;;;17.02;66.45;100557.01;1741240;80;21386;-58
2021/08/29 00:10:46;;;;;;;9.40;6.33;;;;;;;17.04;66.34;100552.86;1742898;80;21000;-58
2021/08/29 00:13:14;;;;;;;10.55;6.62;;;;;;;17.06;66.28;100546.88;1741077;80;21137;-58
2021/08/29 00:15:41;;;;;;;12.63;8.08;;;;;;;17.08;66.14;100543.59;1738389;80;21541;-58
2021/08/29 00:18:07;;;;;;;10.75;7.08;;;;;;;17.05;65.97;100538.59;1737341;80;21102;-58
2021/08/29 00:20:34;;;;;;;10.32;6.65;;;;;;;17.02;65.85;100533.59;1735309;82;23333;-58
2021/08/29 00:23:00;;;;;;;9.65;6.53;;;;;;;16.99;65.82;100536.06;1731929;81;21060;-58
2021/08/29 00:25:28;;;;;;;10.58;7.22;;;;;;;16.96;65.92;100536.88;1735304;80;21671;-58
2021/08/29 00:27:55;;;;;;;9.40;7.00;;;;;;;16.93;66.17;100535.87;1729715;80;21075;-58
2021/08/29 00:30:21;;;;;;;11.12;7.03;;;;;;;16.92;66.68;100539.54;1733198;80;21095;-58
2021/08/29 00:32:48;;;;;;;10.32;6.42;;;;;;;16.92;67.05;100537.70;1729711;80;21154;-58
2021/08/29 00:35:15;;;;;;;11.45;7.05;;;;;;;17.00;66.87;100530.27;1733185;81;21042;-58
2021/08/29 00:37:41;;;;;;;9.60;6.50;;;;;;;17.04;66.79;100524.45;1733676;80;21020;-58
2021/08/29 00:40:12;;;;;;;11.85;7.40;;;;;;;17.06;66.72;100521.16;1734334;80;21059;-58
2021/08/29 00:42:38;;;;;;;9.70;5.80;;;;;;;17.06;66.75;100526.47;1727435;80;21112;-58
2021/08/29 00:45:07;;;;;;;10.28;6.53;;;;;;;17.06;66.75;100530.45;1732784;82;21127;-58
2021/08/29 00:47:35;;;;;;;10.90;6.47;;;;;;;17.05;66.72;100518.66;1719938;82;21099;-58
2021/08/29 00:50:05;;;;;;;10.10;6.15;;;;;;;17.03;66.84;100517.95;1732410;80;21098;-58
2021/08/29 00:52:39;;;;;;;9.13;6.37;;;;;;;17.02;66.83;100518.47;1723705;82;21075;-58
2021/08/29 00:55:09;;;;;;;9.90;6.03;;;;;;;17.04;66.74;100520.97;1733084;81;20995;-58
2021/08/29 00:57:41;;;;;;;10.60;6.20;;;;;;;17.09;66.48;100518.65;1730742;81;21116;-58
2021/08/29 01:00:10;;;;;;;9.15;6.33;;;;;;;17.12;66.54;100518.33;1717625;81;21572;-58
2021/08/29 01:02:38;;;;;;;9.43;7.08;;;;;;;17.13;66.88;100520.01;1715120;82;21023;-59
2021/08/29 01:05:12;;;;;;;11.40;7.37;;;;;;;17.11;67.30;100511.84;1728144;82;21103;-58
2021/08/29 01:08:04;;;;;;;10.60;7.33;;;;;;;17.08;67.45;100511.19;1731034;80;21129;-58
2021/08/29 01:10:42;;;;;;;10.95;7.47;;;;;;;17.07;67.63;100512.67;1730052;80;21066;-58
2021/08/29 01:13:25;;;;;;;10.08;7.28;;;;;;;17.06;67.60;100514.50;1715291;81;21074;-58
2021/08/29 01:15:55;;;;;;;10.35;6.20;;;;;;;17.10;67.62;100521.66;1713577;80;21526;-58
2021/08/29 01:18:22;;;;;;;10.03;6.25;;;;;;;17.17;67.59;100525.32;1721025;80;21093;-58
2021/08/29 01:21:12;;;;;;;10.28;6.40;;;;;;;17.23;67.57;100527.81;1735926;80;21731;-58
2021/08/29 01:23:45;;;;;;;10.50;7.62;;;;;;;17.28;67.46;100536.14;1736310;80;21648;-58
2021/08/29 01:26:20;;;;;;;9.50;6.75;;;;;;;17.29;67.39;100539.65;1744633;80;21477;-58
2021/08/29 01:28:59;;;;;;;9.03;6.45;;;;;;;17.27;67.39;100534.49;1744335;81;21004;-58
2021/08/29 01:31:27;;;;;;;10.75;5.65;;;;;;;17.26;67.43;100527.02;1746524;81;21058;-58
2021/08/29 01:33:56;;;;;;;9.18;5.50;;;;;;;17.23;67.44;100525.16;1735397;81;21066;-58
2021/08/29 01:36:23;;;;;;;9.55;6.17;;;;;;;17.25;67.39;100524.52;1728571;81;21110;-58
2021/08/29 01:38:50;;;;;;;10.30;6.33;;;;;;;17.29;67.19;100516.53;1751352;81;21506;-58
2021/08/29 01:41:19;;;;;;;11.12;6.30;;;;;;;17.30;67.09;100508.05;1750250;81;21074;-58
2021/08/29 01:43:46;;;;;;;10.03;6.42;;;;;;;17.29;67.15;100517.05;1748309;80;21537;-58
2021/08/29 01:46:15;;;;;;;13.58;8.18;;;;;;;17.27;67.04;100522.02;1720751;80;21061;-58
2021/08/29 01:48:43;;;;;;;9.38;6.60;;;;;;;17.22;67.04;100528.33;1744870;80;21126;-58
2021/08/29 01:51:12;;;;;;;9.35;6.20;;;;;;;17.17;67.34;100538.62;1747081;80;21075;-58
2021/08/29 01:53:41;;;;;;;8.63;5.83;;;;;;;17.14;67.61;100536.78;1745738;80;21075;-59
2021/08/29 01:56:14;;;;;;;11.45;6.53;;;;;;;17.13;67.73;100531.97;1729563;80;21529;-58
2021/08/29 01:58:46;;;;;;;8.65;5.80;;;;;;;17.15;67.75;100519.34;1746123;80;21034;-58
2021/08/29 02:01:13;;;;;;;8.15;5.28;;;;;;;17.23;67.50;100511.39;1745261;81;21922;-58
2021/08/29 02:03:42;;;;;;;9.38;5.75;;;;;;;17.29;67.45;100503.75;1751797;81;21058;-58
2021/08/29 02:06:36;;;;;;;9.60;6.25;;;;;;;17.33;67.38;100509.06;1728237;81;21478;-58
2021/08/29 02:09:06;;;;;;;9.63;6.70;;;;;;;17.34;67.30;100513.39;1748859;81;21082;-58
2021/08/29 02:11:37;;;;;;;8.13;5.72;;;;;;;17.32;67.21;100511.41;1746460;81;21526;-58
2021/08/29 02:14:07;;;;;;;9.85;6.12;;;;;;;17.27;67.23;100514.04;1727210;81;21110;-58
2021/08/29 02:16:40;;;;;;;8.90;6.62;;;;;;;17.26;67.24;100514.20;1751744;80;21557;-58
2021/08/29 02:19:07;;;;;;;10.15;6.47;;;;;;;17.24;67.06;100514.87;1749182;81;21078;-59
2021/08/29 02:21:34;;;;;;;9.25;5.85;;;;;;;17.25;66.92;100505.41;1750561;80;21023;-58
2021/08/29 02:24:03;;;;;;;9.05;5.67;;;;;;;17.29;66.97;100510.40;1748227;80;21526;-58
2021/08/29 02:26:30;;;;;;;9.63;6.05;;;;;;;17.34;66.88;100507.57;1745165;81;22289;-58
2021/08/29 02:28:59;;;;;;;10.85;6.53;;;;;;;17.42;66.65;100508.09;1751987;81;21059;-58
2021/08/29 02:31:27;;;;;;;11.63;5.87;;;;;;;17.44;66.50;100494.13;1745412;81;21087;-58
2021/08/29 02:33:53;;;;;;;7.67;4.80;;;;;;;17.41;66.26;100493.94;1749848;80;21043;-58
2021/08/29 02:36:20;;;;;;;12.85;5.90;;;;;;;17.39;66.22;100494.61;1747120;80;21125;-58
2021/08/29 02:38:49;;;;;;;8.45;5.20;;;;;;;17.38;66.10;100495.63;1747582;80;21134;-59
2021/08/29 02:41:17;;;;;;;11.70;5.95;;;;;;;17.36;66.18;100500.76;1706247;80;21628;-58
2021/08/29 02:43:44;;;;;;;7.30;5.08;;;;;;;17.41;66.23;100501.09;1745508;80;21129;-58
2021/08/29 02:46:11;;;;;;;7.65;5.00;;;;;;;17.52;66.38;100515.41;1742552;80;21113;-58
2021/08/29 02:48:38;;;;;;;8.73;5.00;;;;;;;17.58;66.41;100517.90;1747467;80;21027;-58
2021/08/29 02:51:05;;;;;;;7.47;5.12;;;;;;;17.62;66.62;100523.24;1746046;80;21110;-58
2021/08/29 02:53:33;;;;;;;8.75;5.40;;;;;;;17.64;66.87;100527.89;1747415;80;21015;-59
2021/08/29 02:55:59;;;;;;;9.50;6.30;;;;;;;17.67;66.79;100538.69;1745330;80;21554;-58
2021/08/29 02:58:28;;;;;;;10.43;5.90;;;;;;;17.67;66.82;100545.34;1746458;80;21156;-58
2021/08/29 03:01:15;;;;;;;9.60;5.05;;;;;;;17.67;66.97;100542.68;1743750;80;21070;-58
2021/08/29 03:03:51;;;;;;;10.30;5.90;;;;;;;17.72;66.77;100540.35;1739715;80;21062;-58
2021/08/29 03:06:17;;;;;;;10.80;5.47;;;;;;;17.75;66.53;100531.56;1727225;80;21121;-58
2021/08/29 03:08:48;;;;;;;9.28;6.22;;;;;;;17.76;66.60;100529.22;1743771;81;21098;-58
2021/08/29 03:11:19;;;;;;;8.10;5.62;;;;;;;17.77;66.89;100526.05;1745654;81;21063;-58
2021/08/29 03:13:45;;;;;;;10.00;6.28;;;;;;;17.78;67.01;100523.73;1746809;80;21082;-57
2021/08/29 03:16:12;;;;;;;10.00;5.53;;;;;;;17.80;67.03;100528.38;1748225;81;21090;-58
2021/08/29 03:18:47;;;;;;;7.73;4.90;;;;;;;17.81;66.82;100520.74;1725506;80;21125;-58
2021/08/29 03:21:35;;;;;;;6.80;4.05;;;;;;;17.81;66.50;100519.41;1691451;84;21085;-57
2021/08/29 03:24:04;;;;;;;6.67;4.12;;;;;;;17.79;66.47;100518.25;1694131;84;21517;-58
2021/08/29 03:26:32;;;;;;;7.12;4.00;;;;;;;17.82;66.05;100516.59;1709097;81;21054;-58
2021/08/29 03:29:03;;;;;;;7.90;4.28;;;;;;;17.90;65.01;100511.77;1744769;81;21101;-58
2021/08/29 03:31:31;;;;;;;6.95;3.50;;;;;;;17.89;64.64;100506.13;1721291;80;21094;-58
2021/08/29 03:33:59;;;;;;;6.83;4.17;;;;;;;17.85;64.33;100507.42;1743921;80;21497;-58
2021/08/29 03:36:31;;;;;;;7.35;3.80;;;;;;;17.82;64.37;100510.44;1737703;80;21056;-58
2021/08/29 03:39:00;;;;;;;7.12;3.65;;;;;;;17.85;64.79;100510.59;1745747;80;21153;-58
2021/08/29 03:41:28;;;;;;;6.60;3.52;;;;;;;17.84;64.82;100507.11;1739900;80;21138;-58
2021/08/29 03:43:57;;;;;;;6.70;3.35;;;;;;;17.86;64.40;100497.12;1743096;80;21094;-57
2021/08/29 03:46:25;;;;;;;5.87;3.22;;;;;;;17.90;64.37;100494.98;1740390;80;21086;-57
2021/08/29 03:48:54;;;;;;;7.22;3.50;;;;;;;17.97;64.03;100498.14;1746981;80;21588;-57
2021/08/29 03:51:22;;;;;;;6.30;3.12;;;;;;;18.03;64.07;100487.81;1740026;80;21094;-57
2021/08/29 03:53:48;;;;;;;5.97;2.95;;;;;;;18.09;64.05;100488.45;1742545;80;21123;-57
2021/08/29 03:56:15;;;;;;;7.42;3.27;;;;;;;18.12;64.04;100484.97;1724861;80;21128;-58
2021/08/29 03:58:42;;;;;;;5.70;2.65;;;;;;;18.14;63.95;100482.97;1741899;80;21148;-58
2021/08/29 04:01:09;;;;;;;6.92;3.30;;;;;;;18.16;63.33;100477.48;1742524;80;21184;-57
2021/08/29 04:03:37;;;;;;;5.87;3.20;;;;;;;18.12;63.28;100469.00;1739705;80;22019;-57
2021/08/29 04:06:14;;;;;;;10.32;2.67;;;;;;;18.07;63.19;100477.14;1733584;80;22033;-59
2021/08/29 04:08:45;;;;;;;6.08;3.35;;;;;;;18.00;63.61;100484.50;1744589;80;21051;-58
2021/08/29 04:11:12;;;;;;;4.17;2.30;;;;;;;18.01;63.38;100482.15;1739000;80;21007;-58
2021/08/29 04:13:41;;;;;;;5.78;2.67;;;;;;;18.05;63.08;100474.65;1737978;80;21102;-57
2021/08/29 04:16:15;;;;;;;5.22;2.75;;;;;;;18.11;63.21;100474.49;1742795;80;21071;-58
2021/08/29 04:18:45;;;;;;;5.50;2.95;;;;;;;18.17;63.25;100476.45;1715711;80;21189;-57
2021/08/29 04:21:16;;;;;;;5.08;2.27;;;;;;;18.21;63.06;100467.14;1684045;82;21105;-57
2021/08/29 04:23:44;;;;;;;7.00;2.42;;;;;;;18.25;63.25;100474.28;1665484;83;21059;-58
2021/08/29 04:26:11;;;;;;;5.85;3.15;;;;;;;18.28;62.95;100478.77;1690025;83;21084;-58
2021/08/29 04:28:38;;;;;;;7.83;2.47;;;;;;;18.32;62.25;100477.91;1688664;83;21139;-57
2021/08/29 04:31:24;;;;;;;5.67;2.33;;;;;;;18.35;61.93;100485.06;1685682;83;22077;-56
2021/08/29 04:35:29;;;;;;;4.97;2.25;;;;;;;18.44;61.87;100477.90;1794682;78;22665;-61
2021/08/29 04:37:58;;;;;;;5.47;2.10;;;;;;;18.40;62.33;100481.89;1769148;80;21090;-58
2021/08/29 04:40:25;;;;;;;4.08;2.00;;;;;;;18.45;62.44;100466.73;1732827;81;21980;-56
2021/08/29 04:42:53;;;;;;;4.00;1.90;;;;;;;18.56;62.65;100452.52;1713789;81;21022;-59
2021/08/29 04:45:21;;;;;;;5.78;1.87;;;;;;;18.67;62.63;100451.30;1675936;83;21184;-59
2021/08/29 04:47:49;;;;;;;5.83;2.60;;;;;;;18.76;62.64;100444.08;1704433;82;21542;-58
2021/08/29 04:50:17;;;;;;;4.50;1.85;;;;;;;18.84;62.46;100440.59;1733409;81;21125;-59
2021/08/29 04:52:44;;;;;;;13.30;6.03;;;;;;;18.88;62.26;100430.73;1733157;81;21070;-58
2021/08/29 04:55:10;;;;;;;7.30;4.53;;;;;;;18.91;61.96;100433.05;1718593;82;21698;-58
2021/08/29 04:57:37;;;;;;;8.33;4.30;;;;;;;18.93;61.84;100428.38;1712450;81;21081;-57
2021/08/29 05:00:05;;;;;;;21.48;11.83;;;;;;;18.92;61.85;100428.55;1716006;82;22234;-58
2021/08/29 05:02:32;;;;;;;8.38;3.98;;;;;;;18.91;61.68;100425.06;1718713;82;21587;-58
2021/08/29 05:05:00;;;;;;;5.83;2.98;;;;;;;18.95;61.79;100432.20;1712092;81;21129;-58
2021/08/29 05:07:27;;;;;;;6.10;2.65;;;;;;;19.04;61.42;100431.13;1720043;82;21125;-58
2021/08/29 05:09:54;;;;;;;5.60;2.08;;;;;;;19.15;61.09;100433.05;1692118;82;21019;-58
2021/08/29 05:12:20;;;;;;;5.83;2.37;;;;;;;19.22;60.76;100424.68;1688399;82;21112;-58
2021/08/29 05:14:47;;;;;;;6.03;2.70;;;;;;;19.25;60.92;100418.99;1717108;82;21153;-59
2021/08/29 05:17:15;;;;;;;5.60;1.70;;;;;;;19.31;61.01;100418.26;1698099;82;21909;-58
2021/08/29 05:19:50;;;;;;;4.42;2.00;;;;;;;19.34;60.36;100425.91;1714114;82;21474;-59
2021/08/29 05:22:34;;;;;;;5.80;2.22;;;;;;;19.35;60.25;100427.58;1693158;82;21540;-59
2021/08/29 05:25:21;;;;;;;4.28;1.90;;;;;;;19.37;60.20;100429.55;1694327;82;21153;-59
2021/08/29 05:27:48;;;;;;;4.60;2.10;;;;;;;19.38;60.36;100427.20;1718214;82;21073;-59
2021/08/29 05:30:15;;;;;;;4.08;1.90;;;;;;;19.39;60.22;100424.86;1712899;82;22621;-59
2021/08/29 05:32:41;;;;;;;3.70;1.72;;;;;;;19.38;59.94;100427.70;1720415;82;21116;-59
2021/08/29 05:35:10;;;;;;;4.78;1.55;;;;;;;19.38;59.88;100428.53;1701934;82;21059;-58
2021/08/29 05:37:37;;;;;;;4.30;1.77;;;;;;;19.45;59.80;100423.30;1756560;80;21071;-59
2021/08/29 05:40:17;;;;;;;5.17;1.95;;;;;;;19.53;59.75;100415.75;1704507;80;21070;-59
2021/08/29 05:42:45;;;;;;;7.42;2.47;;;;;;;19.56;59.03;100408.72;1715412;80;21160;-58
2021/08/29 05:45:14;;;;;;;4.97;1.82;;;;;;;19.48;59.34;100413.13;1734352;80;21557;-58
2021/08/29 05:47:41;;;;;;;4.60;2.00;;;;;;;19.45;59.33;100418.81;1754499;80;21078;-58
2021/08/29 05:50:09;;;;;;;4.97;2.02;;;;;;;19.43;59.04;100414.66;1753119;80;21094;-58
2021/08/29 05:52:37;;;;;;;5.35;2.37;;;;;;;19.45;58.99;100418.81;1754493;79;21502;-63
2021/08/29 05:55:04;;;;;;;5.20;2.60;;;;;;;19.49;59.22;100417.44;1698545;82;21124;-58
2021/08/29 05:57:30;;;;;;;4.67;1.90;;;;;;;19.56;58.91;100404.71;1756093;80;20947;-59
2021/08/29 05:59:57;;;;;;;5.85;2.65;;;;;;;19.60;58.74;100395.31;1753844;80;21066;-58
2021/08/29 06:02:23;;;;;;;4.40;2.33;;;;;;;19.60;59.13;100398.84;1754573;80;21058;-58
2021/08/29 06:04:49;;;;;;;4.53;2.30;;;;;;;19.59;59.02;100399.84;1752475;80;21097;-58
2021/08/29 06:07:23;;;;;;;4.75;2.30;;;;;;;19.61;59.01;100396.98;1757324;80;21169;-58
2021/08/29 06:09:51;;;;;;;4.87;2.83;;;;;;;19.65;58.48;100398.27;1752285;80;21101;-58
2021/08/29 06:12:18;;;;;;;5.90;2.33;;;;;;;19.63;58.50;100394.96;1758957;80;21154;-59
2021/08/29 06:14:44;;;;;;;6.20;2.40;;;;;;;19.62;58.54;100391.98;1701290;82;21122;-59
2021/08/29 06:17:12;;;;;;;5.10;2.17;;;;;;;19.62;58.48;100398.66;1757803;80;21106;-58
2021/08/29 06:19:40;;;;;;;5.12;2.37;;;;;;;19.61;58.54;100391.14;1760951;80;21285;-58
2021/08/29 06:22:06;;;;;;;4.70;2.20;;;;;;;19.63;58.41;100397.11;1739038;80;21558;-58
2021/08/29 06:24:35;;;;;;;4.78;2.25;;;;;;;19.66;58.33;100395.94;1757838;80;21432;-58
2021/08/29 06:27:10;;;;;;;4.67;2.40;;;;;;;19.67;58.31;100397.61;1695389;82;21696;-58
2021/08/29 06:29:55;;;;;;;6.17;2.30;;;;;;;19.71;58.45;100391.39;1742757;80;21008;-56
2021/08/29 06:32:40;;;;;;;4.33;2.25;;;;;;;19.75;58.39;100388.19;1756622;79;22485;-59
2021/08/29 06:35:10;;;;;;;5.25;2.40;;;;;;;19.79;58.54;100383.34;1708005;82;21675;-59
2021/08/29 06:37:41;;;;;;;5.12;2.45;;;;;;;19.85;58.23;100379.42;1760948;80;21044;-58
2021/08/29 06:40:10;;;;;;;5.03;2.40;;;;;;;19.91;57.83;100363.68;1755317;80;21908;-59
2021/08/29 06:42:36;;;;;;;5.53;2.60;;;;;;;19.94;57.92;100364.62;1724565;82;21103;-58
2021/08/29 06:45:09;;;;;;;5.67;2.15;;;;;;;19.97;58.19;100358.43;1700811;82;23312;-58
2021/08/29 06:47:54;;;;;;;7.15;1.95;;;;;;;20.04;57.52;100357.19;1760313;80;21012;-60
2021/08/29 06:50:41;;;;;;;4.42;2.20;;;;;;;20.07;57.50;100352.78;1757522;80;21075;-59
2021/08/29 06:53:26;;;;;;;4.80;2.60;;;;;;;20.12;57.89;100353.05;1755162;80;21059;-58
2021/08/29 06:56:10;;;;;;;5.78;2.50;;;;;;;20.14;57.86;100347.03;1656086;84;21129;-57
2021/08/29 06:58:53;;;;;;;5.15;2.55;;;;;;;20.19;57.32;100346.45;1734783;80;21151;-58
2021/08/29 07:01:20;;;;;;;4.62;2.40;;;;;;;20.18;57.09;100338.95;1752910;80;21577;-58
2021/08/29 07:03:47;;;;;;;4.92;2.58;;;;;;;20.19;56.69;100343.30;1755213;80;21066;-58
2021/08/29 07:06:14;;;;;;;5.60;2.58;;;;;;;20.17;56.71;100342.66;1737358;80;21059;-58
2021/08/29 07:08:52;;;;;;;6.10;2.80;;;;;;;20.15;57.27;100335.84;1672066;83;21101;-60
2021/08/29 07:11:18;;;;;;;6.10;2.27;;;;;;;20.17;57.60;100337.80;1754079;80;21126;-58
2021/08/29 07:14:02;;;;;;;4.90;2.47;;;;;;;20.20;56.98;100342.27;1708778;82;21153;-59
2021/08/29 07:16:28;;;;;;;4.87;2.60;;;;;;;20.22;56.49;100342.92;1737786;80;21031;-58
2021/08/29 07:18:55;;;;;;;4.83;2.50;;;;;;;20.23;56.94;100343.75;1755671;80;21163;-59
2021/08/29 07:21:25;;;;;;;5.15;2.65;;;;;;;20.29;56.77;100340.82;1752307;80;21066;-58
2021/08/29 07:24:04;;;;;;;4.35;2.17;;;;;;;20.39;56.83;100335.52;1645181;85;21161;-59
2021/08/29 07:26:49;;;;;;;;;;;;;;;20.49;56.54;100332.52;1755272;80;21533;-58
2021/08/29 07:29:34;;;;;;;6.50;2.22;;;;;;;20.54;56.54;100334.14;1715582;82;20241;-59
2021/08/29 07:32:21;;;;;;;5.65;2.72;;;;;;;20.54;56.72;100337.30;1750705;79;21640;-59
2021/08/29 07:34:48;;;;;;;5.00;2.90;;;;;;;20.60;56.63;100333.36;1758091;79;21125;-59
2021/08/29 07:37:29;;;;;;;4.40;2.00;;;;;;;20.71;56.54;100327.22;1757883;79;21194;-59
2021/08/29 07:39:57;;;;;;;4.85;2.20;;;;;;;20.81;56.51;100329.06;1733447;80;21113;-59
2021/08/29 07:42:23;;;;;;;5.08;2.60;;;;;;;20.92;56.65;100318.37;1758751;79;21094;-59
2021/08/29 07:44:50;;;;;;;5.33;2.37;;;;;;;20.99;56.13;100319.26;1763224;79;21691;-58
2021/08/29 07:47:18;;;;;;;5.10;2.60;;;;;;;21.04;56.03;100320.02;1733808;80;21062;-58
2021/08/29 07:49:45;;;;;;;6.90;3.30;;;;;;;21.04;55.88;100317.34;1762626;80;21355;-59
2021/08/29 07:52:13;;;;;;;6.95;3.40;;;;;;;21.08;55.84;100318.60;1765497;79;21090;-57
2021/08/29 07:54:58;;;;;;;4.55;2.27;;;;;;;21.11;55.89;100311.02;1765089;80;21169;-57
2021/08/29 07:57:29;;;;;;;4.58;2.58;;;;;;;21.18;55.90;100301.70;1731860;79;21264;-58
2021/08/29 07:59:56;;;;;;;5.17;2.75;;;;;;;21.28;55.56;100304.89;1761326;80;21168;-57
2021/08/29 08:02:23;;;;;;;5.35;2.90;;;;;;;21.39;55.54;100302.69;1761954;79;21097;-59
2021/08/29 08:04:51;;;;;;;7.37;3.15;;;;;;;21.47;55.91;100303.91;1736301;79;21051;-58
2021/08/29 08:07:34;;;;;;;5.03;2.60;;;;;;;21.57;55.08;100300.37;1763879;79;21600;-66
2021/08/29 08:10:11;;;;;;;4.80;2.85;;;;;;;21.64;54.35;100302.56;1723135;80;21023;-62
2021/08/29 08:12:48;;;;;;;6.03;2.55;;;;;;;21.70;54.64;100294.23;1751522;80;21053;-72
2021/08/29 08:15:15;;;;;;;6.40;2.60;;;;;;;21.76;55.04;100300.16;1755316;79;22037;-73
2021/08/29 08:21:49;;;;;;;4.92;2.35;;;;;;;21.88;54.46;100296.39;1757221;80;21081;-67
2021/08/29 08:24:23;;;;;;;7.40;2.77;;;;;;;21.87;54.06;100284.86;1703726;83;21534;-78
2021/08/29 08:27:07;;;;;;;4.87;2.50;;;;;;;21.91;53.65;100277.25;1747429;80;21050;-76
2021/08/29 08:29:51;;;;;;;5.87;2.90;;;;;;;21.95;53.41;100280.35;1679504;83;21241;-77
2021/08/29 08:32:38;;;;;;;8.10;2.92;;;;;;;21.96;53.33;100269.96;1736005;80;21122;-76
2021/08/29 08:35:12;;;;;;;4.90;2.57;;;;;;;22.01;53.49;100262.97;1715887;81;21079;-74
2021/08/29 08:37:58;;;;;;;5.58;2.75;;;;;;;22.06;53.48;100259.69;1718884;82;21779;-76
2021/08/29 08:40:40;;;;;;;5.15;2.70;;;;;;;22.09;53.96;100247.23;1713902;82;21552;-69
2021/08/29 08:43:14;;;;;;;5.42;2.75;;;;;;;22.11;53.65;100240.30;1716147;82;21820;-74
2021/08/29 08:45:59;;;;;;;5.40;2.90;;;;;;;22.15;54.29;100237.03;1710147;82;21066;-74
2021/08/29 08:48:39;;;;;;;5.12;2.80;;;;;;;22.21;53.70;100225.51;1646799;84;21301;-73
2021/08/29 08:51:08;;;;;;;5.65;3.22;;;;;;;22.29;53.57;100222.34;1680359;82;21136;-71
2021/08/29 08:53:54;;;;;;;5.08;2.70;;;;;;;22.37;53.44;100226.99;1712869;82;21018;-67
2021/08/29 08:56:41;;;;;;;4.85;2.50;;;;;;;22.49;53.68;100218.35;1722575;82;21249;-73
2021/08/29 08:59:09;;;;;;;5.33;2.72;;;;;;;22.59;53.24;100214.74;1709730;82;21117;-78
2021/08/29 09:01:41;;;;;;;7.20;2.65;;;;;;;22.69;53.43;100205.77;1687265;82;21374;-70
2021/08/29 09:04:21;;;;;;;4.92;2.62;;;;;;;22.81;53.28;100204.13;1716736;82;21010;-66
2021/08/29 09:06:49;;;;;;;5.95;2.80;;;;;;;22.91;52.80;100193.48;1716885;82;21129;-73
2021/08/29 09:09:16;;;;;;;5.22;2.90;;;;;;;22.97;52.41;100198.02;1711535;82;22897;-69
2021/08/29 09:11:46;;;;;;;5.15;2.80;;;;;;;23.05;52.58;100195.61;1709718;82;21085;-64
2021/08/29 09:14:15;;;;;;;5.50;3.22;;;;;;;23.08;52.09;100179.13;1717989;82;21137;-73
2021/08/29 09:16:52;;;;;;;5.40;3.17;;;;;;;23.13;52.33;100182.85;1714428;82;21547;-71
2021/08/29 09:19:20;;;;;;;5.35;3.22;;;;;;;23.18;51.66;100176.34;1713726;82;21054;-68
2021/08/29 09:21:47;;;;;;;4.95;2.67;;;;;;;23.23;51.82;100179.70;1719131;82;21779;-66
2021/08/29 09:24:18;;;;;;;4.90;2.80;;;;;;;23.30;50.90;100174.31;1685742;83;21125;-70
2021/08/29 09:26:46;;;;;;;5.60;2.98;;;;;;;23.38;50.89;100174.08;1688902;82;21057;-68
2021/08/29 09:29:24;;;;;;;5.67;2.65;;;;;;;23.48;51.27;100173.11;1714696;82;21763;-67
2021/08/29 09:31:54;;;;;;;5.85;3.17;;;;;;;23.65;51.12;100161.89;1690961;82;21133;-66
2021/08/29 09:34:25;;;;;;;6.12;3.02;;;;;;;23.80;51.62;100161.08;1691146;82;21805;-66
2021/08/29 09:37:01;;;;;;;5.12;2.90;;;;;;;23.95;50.47;100156.78;1714701;81;21122;-69
2021/08/29 09:39:41;;;;;;;7.87;3.42;;;;;;;24.08;49.83;100154.55;1664500;82;21063;-67
2021/08/29 09:42:19;;;;;;;5.45;3.10;;;;;;;24.21;49.51;100154.95;1694713;81;21069;-67
2021/08/29 09:44:57;;;;;;;5.67;3.10;;;;;;;24.35;49.16;100158.38;1692095;83;21156;-65
2021/08/29 09:47:43;;;;;;;5.67;3.05;;;;;;;24.46;48.90;100149.58;1669773;84;21762;-75
2021/08/29 09:50:22;;;;;;;6.55;3.35;;;;;;;24.54;49.47;100139.89;1596413;88;21709;-70
2021/08/29 09:53:06;;;;;;;6.03;3.10;;;;;;;24.63;49.80;100139.95;1668860;83;21118;-68
2021/08/29 09:55:52;;;;;;;5.85;2.80;;;;;;;24.73;50.07;100143.98;1646986;84;21078;-66
2021/08/29 09:58:37;;;;;;;5.65;3.40;;;;;;;24.91;49.92;100147.23;1664864;84;21154;-68
2021/08/29 10:01:13;;;;;;;5.80;3.33;;;;;;;25.04;49.41;100129.59;1657356;84;21142;-69
2021/08/29 10:03:48;;;;;;;8.48;3.20;;;;;;;25.10;48.57;100128.70;1662252;84;21074;-72
2021/08/29 10:06:27;;;;;;;5.65;3.80;;;;;;;25.14;48.54;100126.38;1667014;84;21062;-67
2021/08/29 10:09:01;;;;;;;5.83;3.42;;;;;;;25.19;47.88;100126.53;1665483;84;21083;-67
2021/08/29 10:11:31;;;;;;;5.57;3.40;;;;;;;25.16;47.71;100113.52;1668811;84;20983;-69
2021/08/29 10:13:59;;;;;;;5.80;3.42;;;;;;;25.16;48.96;100112.16;1660593;84;21131;-67
2021/08/29 10:16:29;;;;;;;6.50;3.98;;;;;;;25.20;48.65;100101.23;1665331;84;21640;-67
2021/08/29 10:19:14;;;;;;;6.40;3.72;;;;;;;25.23;47.72;100102.13;1664153;84;21066;-65
2021/08/29 10:22:00;;;;;;;7.15;3.92;;;;;;;25.25;48.19;100101.41;1583877;87;21093;-70
2021/08/29 10:24:30;;;;;;;5.70;3.65;;;;;;;25.31;48.07;100097.00;1598300;87;21079;-68
2021/08/29 10:27:06;;;;;;;5.87;4.15;;;;;;;25.36;47.99;100094.45;1633623;84;21136;-67
2021/08/29 10:29:50;;;;;;;6.47;3.55;;;;;;;25.43;48.52;100088.97;1644081;85;21498;-69
2021/08/29 10:32:45;;;;;;;6.65;3.40;;;;;;;25.49;48.86;100084.03;1681087;83;21102;-67
2021/08/29 10:35:22;;;;;;;5.92;3.67;;;;;;;25.55;49.09;100085.28;1655450;83;21058;-69
2021/08/29 10:37:50;;;;;;;6.87;4.28;;;;;;;25.69;49.53;100075.13;1692073;83;21046;-67
2021/08/29 10:40:24;;;;;;;5.97;4.05;;;;;;;25.80;49.25;100069.45;1671749;83;21164;-72
2021/08/29 10:42:58;;;;;;;8.68;4.15;;;;;;;25.92;48.95;100069.48;1691281;83;21120;-69
2021/08/29 10:45:26;;;;;;;7.50;5.05;;;;;;;26.06;48.90;100068.26;1689825;82;21027;-67
2021/08/29 10:48:15;;;;;;;7.45;4.03;;;;;;;26.20;48.73;100061.30;1622116;86;21067;-75
2021/08/29 10:50:55;;;;;;;7.62;4.37;;;;;;;26.39;47.96;100057.41;1619576;86;21082;-68
2021/08/29 10:53:33;;;;;;;6.40;4.45;;;;;;;26.54;47.82;100062.33;1646751;82;21336;-75
2021/08/29 10:56:21;;;;;;;7.05;4.33;;;;;;;26.68;47.64;100057.55;1698644;83;21097;-71
2021/08/29 10:59:14;;;;;;;9.05;4.30;;;;;;;26.80;47.26;100056.98;1702380;82;21051;-68
2021/08/29 11:01:45;;;;;;;6.50;4.40;;;;;;;26.89;47.10;100053.38;1697560;83;21086;-72
2021/08/29 11:04:28;;;;;;;7.40;4.33;;;;;;;26.91;47.04;100053.14;1675377;82;21536;-71
2021/08/29 11:07:10;;;;;;;6.70;4.75;;;;;;;26.86;46.55;100049.30;1696238;82;21068;-72
2021/08/29 11:09:44;;;;;;;7.35;5.25;;;;;;;26.83;46.87;100045.72;1696419;82;21040;-79
2021/08/29 11:12:22;;;;;;;7.35;4.62;;;;;;;26.83;46.69;100041.67;1698042;82;21046;-70
2021/08/29 11:14:52;;;;;;;6.92;5.37;;;;;;;26.84;47.13;100036.55;1700308;82;21059;-69
2021/08/29 11:17:25;;;;;;;9.95;5.08;;;;;;;26.81;47.39;100030.81;1695930;83;21615;-69
2021/08/29 11:20:09;;;;;;;7.20;5.17;;;;;;;26.85;47.66;100023.35;1703559;83;21142;-67
2021/08/29 11:22:47;;;;;;;7.40;5.20;;;;;;;26.87;47.37;100019.06;1593536;88;21148;-69
2021/08/29 11:25:27;;;;;;;7.62;5.83;;;;;;;26.91;47.67;100020.21;1696177;82;21044;-70
2021/08/29 11:27:58;;;;;;;6.87;4.55;;;;;;;26.97;48.01;100022.50;1700882;82;21147;-70
2021/08/29 11:30:40;;;;;;;7.45;5.03;;;;;;;27.05;48.40;100014.02;1656076;82;21061;-69
2021/08/29 11:33:17;;;;;;;6.87;5.58;;;;;;;27.16;48.19;100011.78;1678876;83;21061;-69
2021/08/29 11:35:49;;;;;;;7.35;4.97;;;;;;;27.31;48.27;100006.41;1697319;83;21040;-69
2021/08/29 11:38:25;;;;;;;10.50;5.05;;;;;;;27.42;47.32;100012.30;1678780;84;21055;-70
2021/08/29 11:41:16;;;;;;;7.80;5.78;;;;;;;27.51;47.12;100002.71;1700555;83;21042;-73
2021/08/29 11:43:46;;;;;;;7.62;5.35;;;;;;;27.60;46.41;99995.86;1674694;83;21016;-69
2021/08/29 11:46:23;;;;;;;8.78;5.20;;;;;;;27.65;46.07;99989.69;1677504;83;22467;-71
2021/08/29 11:49:00;;;;;;;8.50;5.47;;;;;;;27.67;46.58;99989.45;1671644;83;21058;-72
2021/08/29 11:51:36;;;;;;;7.55;5.35;;;;;;;27.70;46.72;99983.02;1697377;83;21564;-71
2021/08/29 11:54:19;;;;;;;8.43;5.33;;;;;;;27.73;46.55;99974.42;1698763;83;21078;-71